Honey Creek, WI (53138)

1:10 PM CDT on October 02, 2014 (GMT -0500)
Rochester, WI | Change Station
CLOSE
Current Station
Personal Weather Station
Location: Rochester, WI
Elevation: 780 ft
Nearby Weather Stations

Elev 780 ft 42.74 °N, 88.24 °W | Updated 17 seconds ago

Mostly Cloudy
Mostly Cloudy
75.2 °F
Feels Like 77 °F
N
3.1
Wind Variable Wind from South
Gusts 10.7 mph

Today
High -- | Low -- °F
--% Chance of Precip.
Yesterday
High -- | Low -- °F
Precip. -- in
6:51 AM 6:32 PM
First Quarter, 61% visible
Pressure 29.82 in
Visibility 10.0 miles
Clouds Scattered Clouds 2800 ft
Scattered Clouds 9000 ft
Heat Index 77 °F
Dew Point 63 °F
Humidity 66%
Rainfall 0.00 in
Snow Depth Not available.
UV 5 out of 12
Pollen .50 out of 12
Air Quality Not available.
Flu Activity Not available.
METAR KBUU 021755Z AUTO 22011KT 10SM SCT028 SCT090 23/16 A2982 RMK AO2 T02280158 10232 20144

More Conditions Fewer Conditions

Pressure 29.82 in
Visibility 10.0 miles
Clouds Scattered Clouds 2800 ft
Scattered Clouds 9000 ft
Heat Index 77 °F
Dew Point 63 °F
Humidity 66%
Rainfall 0.00 in
Snow Depth Not available.
UV 5 out of 12
Pollen .50 out of 12
Air Quality Not available.
Flu Activity Not available.
METAR KBUU 021755Z AUTO 22011KT 10SM SCT028 SCT090 23/16 A2982 RMK AO2 T02280158 10232 20144

More Conditions Fewer Conditions

10-Day Weather Forecast

Almanac

Astronomy

Oct. 02, 2014 Rise Set
Actual Time 6:51 AM CDT 6:32 PM CDT
Civil Twilight 6:23 AM CDT 7:00 PM CDT
Nautical Twilight 5:50 AM CDT 7:33 PM CDT
Astronomical Twilight 5:17 AM CDT 8:06 PM CDT
Moon 2:46 PM CDT 12:00 AM CDT
Length of Visible Light 12h 37m
Length of Day
11h 41m
Tomorrow will be 2m 52s shorter.
First Quarter, 61% of the Moon is Illuminated
Today
First Quarter
Oct 8
Full
Oct 15
Last Quarter
Oct 23
New
Oct 30
First Quarter

Today's Extremes

State Highs State Lows

Community

WunderPhotos

Upload Photos

1,758,316 photos uploaded!

WunderBlogs® & News

Nearby

Snow Depth

Station Depth Elevation
No new snow has been reported.

Earthquake Activity

City Distance Mag. Time & Date
No recent earthquake activity has been reported nearby.
Minimum magnitude displayed is 2.5.

Coastal Water Temperatures

Place Temperature
No Stations Reporting

Nearby Weather Stations